South Arlington, Ohio
Current Conditions -  °F | °C
As of 10:54 AM on Saturday 20 Dec 2014 (Local Time) from KAKR Reporting Station
Overcast Overcast  
Wind Chill: 29°   Ceiling: 2300
Heat Index: 29°   Visibility: 10mi
Dew Point: 19°   Wind: 0mph
Humidity: 67%   Direction: NA
Pressure: 30.28"   Gusts: NA
Location:  41.0384°N, 81.4827°W
Report Text: KAKR 201554Z AUTO 00000KT 10SM OVC023 M02/M07 A3028 RMK AO2 SLP266 T10171072 $
Loading
Personal Weather Stations






























Interactive Weather Map New forecast layout! Learn more

10-Day Weather Forecast

Advertisements
Track Severe Weather on mobile